sensor_id;sensor_type;location;lat;lon;timestamp;P1;durP1;ratioP1;P2;durP2;ratioP2
75297;SDS011;63896;45.990;18.688;2023-08-08T00:02:01;2.38;;;0.52;;
75297;SDS011;63896;45.990;18.688;2023-08-08T00:05:04;0.90;;;0.65;;
75297;SDS011;63896;45.990;18.688;2023-08-08T00:08:07;2.87;;;0.60;;
75297;SDS011;63896;45.990;18.688;2023-08-08T00:11:10;0.73;;;0.38;;
75297;SDS011;63896;45.990;18.688;2023-08-08T00:14:12;1.00;;;0.40;;
75297;SDS011;63896;45.990;18.688;2023-08-08T00:17:15;1.02;;;0.70;;
75297;SDS011;63896;45.990;18.688;2023-08-08T00:20:18;1.10;;;0.60;;
75297;SDS011;63896;45.990;18.688;2023-08-08T00:23:21;5.63;;;0.80;;
75297;SDS011;63896;45.990;18.688;2023-08-08T00:26:27;2.50;;;0.80;;
75297;SDS011;63896;45.990;18.688;2023-08-08T00:29:30;3.22;;;0.50;;
75297;SDS011;63896;45.990;18.688;2023-08-08T00:32:33;0.50;;;0.40;;
75297;SDS011;63896;45.990;18.688;2023-08-08T00:35:36;0.80;;;0.60;;
75297;SDS011;63896;45.990;18.688;2023-08-08T00:38:39;0.70;;;0.33;;
75297;SDS011;63896;45.990;18.688;2023-08-08T00:41:41;2.80;;;0.68;;
75297;SDS011;63896;45.990;18.688;2023-08-08T00:44:44;0.70;;;0.30;;
75297;SDS011;63896;45.990;18.688;2023-08-08T00:47:47;1.00;;;0.57;;
75297;SDS011;63896;45.990;18.688;2023-08-08T00:50:50;2.90;;;0.60;;
75297;SDS011;63896;45.990;18.688;2023-08-08T00:53:55;4.90;;;0.77;;
75297;SDS011;63896;45.990;18.688;2023-08-08T00:56:59;3.25;;;0.50;;
75297;SDS011;63896;45.990;18.688;2023-08-08T01:00:02;2.42;;;0.40;;
75297;SDS011;63896;45.990;18.688;2023-08-08T01:03:06;1.10;;;0.32;;
75297;SDS011;63896;45.990;18.688;2023-08-08T01:06:18;0.70;;;0.45;;
75297;SDS011;63896;45.990;18.688;2023-08-08T01:09:52;1.10;;;0.90;;
75297;SDS011;63896;45.990;18.688;2023-08-08T01:12:59;2.70;;;0.45;;
75297;SDS011;63896;45.990;18.688;2023-08-08T01:16:05;1.17;;;0.50;;
75297;SDS011;63896;45.990;18.688;2023-08-08T01:19:09;2.35;;;0.40;;
75297;SDS011;63896;45.990;18.688;2023-08-08T01:22:22;0.65;;;0.32;;
75297;SDS011;63896;45.990;18.688;2023-08-08T01:25:34;1.30;;;0.30;;
75297;SDS011;63896;45.990;18.688;2023-08-08T01:28:38;1.13;;;0.47;;
75297;SDS011;63896;45.990;18.688;2023-08-08T01:31:41;1.38;;;0.38;;
75297;SDS011;63896;45.990;18.688;2023-08-08T01:34:44;0.75;;;0.40;;
75297;SDS011;63896;45.990;18.688;2023-08-08T01:37:52;2.22;;;0.40;;
75297;SDS011;63896;45.990;18.688;2023-08-08T01:41:00;2.87;;;0.60;;
75297;SDS011;63896;45.990;18.688;2023-08-08T01:44:07;0.80;;;0.45;;
75297;SDS011;63896;45.990;18.688;2023-08-08T01:47:10;0.68;;;0.30;;
75297;SDS011;63896;45.990;18.688;2023-08-08T01:50:13;0.80;;;0.35;;
75297;SDS011;63896;45.990;18.688;2023-08-08T01:53:16;2.70;;;0.28;;
75297;SDS011;63896;45.990;18.688;2023-08-08T01:56:19;1.47;;;0.37;;
75297;SDS011;63896;45.990;18.688;2023-08-08T01:59:22;1.15;;;0.57;;
75297;SDS011;63896;45.990;18.688;2023-08-08T02:02:25;1.63;;;0.57;;
75297;SDS011;63896;45.990;18.688;2023-08-08T02:05:28;1.25;;;0.50;;
75297;SDS011;63896;45.990;18.688;2023-08-08T02:08:32;0.95;;;0.50;;
75297;SDS011;63896;45.990;18.688;2023-08-08T02:11:36;1.20;;;0.63;;
75297;SDS011;63896;45.990;18.688;2023-08-08T02:14:39;1.42;;;0.63;;
75297;SDS011;63896;45.990;18.688;2023-08-08T02:17:42;0.98;;;0.57;;
75297;SDS011;63896;45.990;18.688;2023-08-08T02:20:46;1.73;;;0.70;;
75297;SDS011;63896;45.990;18.688;2023-08-08T02:23:49;2.92;;;0.60;;
75297;SDS011;63896;45.990;18.688;2023-08-08T02:26:52;1.67;;;0.60;;
75297;SDS011;63896;45.990;18.688;2023-08-08T02:29:55;2.40;;;0.70;;
75297;SDS011;63896;45.990;18.688;2023-08-08T02:32:59;1.40;;;0.63;;
75297;SDS011;63896;45.990;18.688;2023-08-08T02:36:02;1.48;;;0.80;;
75297;SDS011;63896;45.990;18.688;2023-08-08T02:39:06;1.08;;;0.70;;
75297;SDS011;63896;45.990;18.688;2023-08-08T02:42:09;0.63;;;0.50;;
75297;SDS011;63896;45.990;18.688;2023-08-08T02:45:12;0.80;;;0.50;;
75297;SDS011;63896;45.990;18.688;2023-08-08T02:48:14;1.73;;;0.43;;
75297;SDS011;63896;45.990;18.688;2023-08-08T02:51:18;2.55;;;0.82;;
75297;SDS011;63896;45.990;18.688;2023-08-08T02:54:21;2.60;;;0.60;;
75297;SDS011;63896;45.990;18.688;2023-08-08T02:57:24;0.60;;;0.50;;
75297;SDS011;63896;45.990;18.688;2023-08-08T03:00:29;1.60;;;0.60;;
75297;SDS011;63896;45.990;18.688;2023-08-08T03:03:33;3.97;;;0.70;;
75297;SDS011;63896;45.990;18.688;2023-08-08T03:06:37;0.63;;;0.38;;
75297;SDS011;63896;45.990;18.688;2023-08-08T03:09:40;2.08;;;0.70;;
75297;SDS011;63896;45.990;18.688;2023-08-08T03:12:45;1.30;;;0.40;;
75297;SDS011;63896;45.990;18.688;2023-08-08T03:15:48;1.90;;;0.70;;
75297;SDS011;63896;45.990;18.688;2023-08-08T03:18:51;3.05;;;0.65;;
75297;SDS011;63896;45.990;18.688;2023-08-08T03:21:54;1.33;;;0.60;;
75297;SDS011;63896;45.990;18.688;2023-08-08T03:24:57;0.85;;;0.50;;
75297;SDS011;63896;45.990;18.688;2023-08-08T03:28:00;2.03;;;0.80;;
75297;SDS011;63896;45.990;18.688;2023-08-08T03:31:03;1.38;;;0.70;;
75297;SDS011;63896;45.990;18.688;2023-08-08T03:34:07;1.25;;;0.57;;
75297;SDS011;63896;45.990;18.688;2023-08-08T03:37:11;1.63;;;0.98;;
75297;SDS011;63896;45.990;18.688;2023-08-08T03:40:13;1.00;;;0.57;;
75297;SDS011;63896;45.990;18.688;2023-08-08T03:43:17;0.80;;;0.30;;
75297;SDS011;63896;45.990;18.688;2023-08-08T03:46:20;1.70;;;0.85;;
75297;SDS011;63896;45.990;18.688;2023-08-08T03:49:23;2.22;;;0.98;;
75297;SDS011;63896;45.990;18.688;2023-08-08T03:52:28;2.60;;;0.60;;
75297;SDS011;63896;45.990;18.688;2023-08-08T03:55:32;3.08;;;0.52;;
75297;SDS011;63896;45.990;18.688;2023-08-08T03:58:37;2.20;;;0.80;;
75297;SDS011;63896;45.990;18.688;2023-08-08T04:01:41;1.95;;;0.50;;
75297;SDS011;63896;45.990;18.688;2023-08-08T04:04:44;3.05;;;0.85;;
75297;SDS011;63896;45.990;18.688;2023-08-08T04:07:47;1.98;;;0.90;;
75297;SDS011;63896;45.990;18.688;2023-08-08T04:10:50;2.40;;;0.73;;
75297;SDS011;63896;45.990;18.688;2023-08-08T04:13:53;1.57;;;0.70;;
75297;SDS011;63896;45.990;18.688;2023-08-08T04:16:56;2.33;;;0.80;;
75297;SDS011;63896;45.990;18.688;2023-08-08T04:19:59;3.20;;;1.20;;
75297;SDS011;63896;45.990;18.688;2023-08-08T04:23:02;3.70;;;0.50;;
75297;SDS011;63896;45.990;18.688;2023-08-08T04:26:05;2.67;;;0.90;;
75297;SDS011;63896;45.990;18.688;2023-08-08T04:29:07;3.60;;;0.70;;
75297;SDS011;63896;45.990;18.688;2023-08-08T04:32:11;1.15;;;0.55;;
75297;SDS011;63896;45.990;18.688;2023-08-08T04:35:14;1.63;;;0.63;;
75297;SDS011;63896;45.990;18.688;2023-08-08T04:38:17;2.45;;;0.47;;
75297;SDS011;63896;45.990;18.688;2023-08-08T04:41:20;2.63;;;0.60;;
75297;SDS011;63896;45.990;18.688;2023-08-08T04:44:23;2.80;;;0.77;;
75297;SDS011;63896;45.990;18.688;2023-08-08T04:47:25;2.88;;;0.47;;
75297;SDS011;63896;45.990;18.688;2023-08-08T04:50:29;0.98;;;0.40;;
75297;SDS011;63896;45.990;18.688;2023-08-08T04:53:31;0.75;;;0.35;;
75297;SDS011;63896;45.990;18.688;2023-08-08T04:56:34;0.73;;;0.40;;
75297;SDS011;63896;45.990;18.688;2023-08-08T04:59:37;0.57;;;0.30;;
75297;SDS011;63896;45.990;18.688;2023-08-08T05:02:40;5.00;;;0.60;;
75297;SDS011;63896;45.990;18.688;2023-08-08T05:05:43;1.77;;;0.50;;
75297;SDS011;63896;45.990;18.688;2023-08-08T05:08:51;1.05;;;0.30;;
75297;SDS011;63896;45.990;18.688;2023-08-08T05:11:54;2.83;;;0.55;;
75297;SDS011;63896;45.990;18.688;2023-08-08T05:14:57;1.03;;;0.80;;
75297;SDS011;63896;45.990;18.688;2023-08-08T05:18:00;1.73;;;0.75;;
75297;SDS011;63896;45.990;18.688;2023-08-08T05:21:03;1.15;;;0.68;;
75297;SDS011;63896;45.990;18.688;2023-08-08T05:24:06;1.80;;;0.68;;
75297;SDS011;63896;45.990;18.688;2023-08-08T05:27:10;5.28;;;0.70;;
75297;SDS011;63896;45.990;18.688;2023-08-08T05:30:13;1.37;;;0.70;;
75297;SDS011;63896;45.990;18.688;2023-08-08T05:33:16;2.03;;;0.68;;
75297;SDS011;63896;45.990;18.688;2023-08-08T05:36:19;2.05;;;0.77;;
75297;SDS011;63896;45.990;18.688;2023-08-08T05:39:22;3.00;;;0.80;;
75297;SDS011;63896;45.990;18.688;2023-08-08T05:42:25;1.38;;;0.50;;
75297;SDS011;63896;45.990;18.688;2023-08-08T05:45:28;3.73;;;0.50;;
75297;SDS011;63896;45.990;18.688;2023-08-08T05:48:30;3.20;;;0.60;;
75297;SDS011;63896;45.990;18.688;2023-08-08T05:51:33;1.33;;;0.60;;
75297;SDS011;63896;45.990;18.688;2023-08-08T05:54:36;2.65;;;0.65;;
75297;SDS011;63896;45.990;18.688;2023-08-08T05:57:40;0.73;;;0.50;;
75297;SDS011;63896;45.990;18.688;2023-08-08T06:00:43;0.93;;;0.50;;
75297;SDS011;63896;45.990;18.688;2023-08-08T06:03:46;6.45;;;0.77;;
75297;SDS011;63896;45.990;18.688;2023-08-08T06:06:49;3.30;;;0.60;;
75297;SDS011;63896;45.990;18.688;2023-08-08T06:09:52;1.90;;;0.77;;
75297;SDS011;63896;45.990;18.688;2023-08-08T06:12:55;1.17;;;0.70;;
75297;SDS011;63896;45.990;18.688;2023-08-08T06:15:58;2.90;;;0.80;;
75297;SDS011;63896;45.990;18.688;2023-08-08T06:19:01;1.40;;;0.50;;
75297;SDS011;63896;45.990;18.688;2023-08-08T06:22:04;3.25;;;0.70;;
75297;SDS011;63896;45.990;18.688;2023-08-08T06:25:06;1.48;;;0.75;;
75297;SDS011;63896;45.990;18.688;2023-08-08T06:28:10;1.83;;;0.70;;
75297;SDS011;63896;45.990;18.688;2023-08-08T06:31:14;1.13;;;0.73;;
75297;SDS011;63896;45.990;18.688;2023-08-08T06:34:17;2.85;;;0.80;;
75297;SDS011;63896;45.990;18.688;2023-08-08T06:37:20;1.58;;;0.60;;
75297;SDS011;63896;45.990;18.688;2023-08-08T06:40:23;1.65;;;0.80;;
75297;SDS011;63896;45.990;18.688;2023-08-08T06:43:26;1.90;;;0.70;;
75297;SDS011;63896;45.990;18.688;2023-08-08T06:46:29;1.40;;;0.70;;
75297;SDS011;63896;45.990;18.688;2023-08-08T06:49:32;1.80;;;0.93;;
75297;SDS011;63896;45.990;18.688;2023-08-08T06:52:35;3.10;;;1.00;;
75297;SDS011;63896;45.990;18.688;2023-08-08T06:55:39;1.63;;;0.73;;
75297;SDS011;63896;45.990;18.688;2023-08-08T06:58:42;3.20;;;1.00;;
75297;SDS011;63896;45.990;18.688;2023-08-08T07:01:45;2.53;;;0.87;;
75297;SDS011;63896;45.990;18.688;2023-08-08T07:04:48;2.90;;;0.80;;
75297;SDS011;63896;45.990;18.688;2023-08-08T07:07:51;1.95;;;0.88;;
75297;SDS011;63896;45.990;18.688;2023-08-08T07:10:56;1.23;;;0.90;;
75297;SDS011;63896;45.990;18.688;2023-08-08T07:13:59;2.40;;;1.08;;
75297;SDS011;63896;45.990;18.688;2023-08-08T07:17:02;2.03;;;1.10;;
75297;SDS011;63896;45.990;18.688;2023-08-08T07:20:06;4.47;;;1.10;;
75297;SDS011;63896;45.990;18.688;2023-08-08T07:23:09;2.25;;;1.02;;
75297;SDS011;63896;45.990;18.688;2023-08-08T07:26:12;4.25;;;0.80;;
75297;SDS011;63896;45.990;18.688;2023-08-08T07:29:15;1.88;;;0.98;;
75297;SDS011;63896;45.990;18.688;2023-08-08T07:32:17;4.20;;;0.97;;
75297;SDS011;63896;45.990;18.688;2023-08-08T07:35:20;1.08;;;0.80;;
75297;SDS011;63896;45.990;18.688;2023-08-08T07:38:23;1.35;;;0.90;;
75297;SDS011;63896;45.990;18.688;2023-08-08T07:41:26;1.67;;;1.00;;
75297;SDS011;63896;45.990;18.688;2023-08-08T07:44:32;1.88;;;1.00;;
75297;SDS011;63896;45.990;18.688;2023-08-08T07:47:37;7.93;;;1.70;;
75297;SDS011;63896;45.990;18.688;2023-08-08T07:50:40;7.43;;;1.65;;
75297;SDS011;63896;45.990;18.688;2023-08-08T07:53:42;4.35;;;1.33;;
75297;SDS011;63896;45.990;18.688;2023-08-08T07:56:48;14.20;;;3.42;;
75297;SDS011;63896;45.990;18.688;2023-08-08T07:59:51;2.70;;;1.10;;
75297;SDS011;63896;45.990;18.688;2023-08-08T08:02:54;1.53;;;0.80;;
75297;SDS011;63896;45.990;18.688;2023-08-08T08:05:56;1.13;;;0.90;;
75297;SDS011;63896;45.990;18.688;2023-08-08T08:08:59;3.33;;;1.40;;
75297;SDS011;63896;45.990;18.688;2023-08-08T08:12:02;3.33;;;1.50;;
75297;SDS011;63896;45.990;18.688;2023-08-08T08:15:06;3.58;;;1.63;;
75297;SDS011;63896;45.990;18.688;2023-08-08T08:18:11;2.60;;;1.17;;
75297;SDS011;63896;45.990;18.688;2023-08-08T08:21:26;3.17;;;1.02;;
75297;SDS011;63896;45.990;18.688;2023-08-08T08:24:29;2.58;;;1.10;;
75297;SDS011;63896;45.990;18.688;2023-08-08T08:27:32;1.77;;;1.15;;
75297;SDS011;63896;45.990;18.688;2023-08-08T08:30:36;4.13;;;1.17;;
75297;SDS011;63896;45.990;18.688;2023-08-08T08:33:39;1.90;;;1.07;;
75297;SDS011;63896;45.990;18.688;2023-08-08T08:36:43;5.03;;;1.17;;
75297;SDS011;63896;45.990;18.688;2023-08-08T08:39:46;2.53;;;1.10;;
75297;SDS011;63896;45.990;18.688;2023-08-08T08:42:49;8.48;;;1.40;;
75297;SDS011;63896;45.990;18.688;2023-08-08T08:45:53;2.47;;;0.90;;
75297;SDS011;63896;45.990;18.688;2023-08-08T08:48:58;1.87;;;1.27;;
75297;SDS011;63896;45.990;18.688;2023-08-08T08:52:02;1.33;;;0.90;;
75297;SDS011;63896;45.990;18.688;2023-08-08T08:55:07;1.48;;;0.98;;
75297;SDS011;63896;45.990;18.688;2023-08-08T09:01:44;3.05;;;1.30;;
75297;SDS011;63896;45.990;18.688;2023-08-08T09:04:47;1.53;;;0.50;;
75297;SDS011;63896;45.990;18.688;2023-08-08T09:07:50;2.92;;;1.30;;
75297;SDS011;63896;45.990;18.688;2023-08-08T09:10:53;1.40;;;1.08;;
75297;SDS011;63896;45.990;18.688;2023-08-08T09:13:58;2.20;;;1.13;;
75297;SDS011;63896;45.990;18.688;2023-08-08T09:17:02;1.55;;;1.05;;
75297;SDS011;63896;45.990;18.688;2023-08-08T09:20:05;4.37;;;1.90;;
75297;SDS011;63896;45.990;18.688;2023-08-08T09:23:09;1.20;;;1.05;;
75297;SDS011;63896;45.990;18.688;2023-08-08T09:26:13;1.60;;;1.08;;
75297;SDS011;63896;45.990;18.688;2023-08-08T09:29:18;1.02;;;0.70;;
75297;SDS011;63896;45.990;18.688;2023-08-08T09:32:21;1.50;;;0.73;;
75297;SDS011;63896;45.990;18.688;2023-08-08T09:35:24;3.33;;;1.17;;
75297;SDS011;63896;45.990;18.688;2023-08-08T09:38:27;2.30;;;1.13;;
75297;SDS011;63896;45.990;18.688;2023-08-08T09:41:30;1.75;;;0.80;;
75297;SDS011;63896;45.990;18.688;2023-08-08T09:44:33;2.10;;;1.30;;
75297;SDS011;63896;45.990;18.688;2023-08-08T09:47:37;2.03;;;1.02;;
75297;SDS011;63896;45.990;18.688;2023-08-08T09:50:40;1.10;;;1.00;;
75297;SDS011;63896;45.990;18.688;2023-08-08T09:53:44;1.88;;;0.98;;
75297;SDS011;63896;45.990;18.688;2023-08-08T09:56:49;1.65;;;0.88;;
75297;SDS011;63896;45.990;18.688;2023-08-08T09:59:53;2.92;;;0.90;;
75297;SDS011;63896;45.990;18.688;2023-08-08T10:02:58;0.57;;;0.57;;
75297;SDS011;63896;45.990;18.688;2023-08-08T10:06:03;2.00;;;1.20;;
75297;SDS011;63896;45.990;18.688;2023-08-08T10:09:06;1.20;;;1.00;;
75297;SDS011;63896;45.990;18.688;2023-08-08T10:12:10;1.88;;;1.00;;
75297;SDS011;63896;45.990;18.688;2023-08-08T10:15:14;1.40;;;0.77;;
75297;SDS011;63896;45.990;18.688;2023-08-08T10:18:17;2.13;;;1.10;;
75297;SDS011;63896;45.990;18.688;2023-08-08T10:21:22;2.70;;;1.20;;
75297;SDS011;63896;45.990;18.688;2023-08-08T10:24:26;2.35;;;1.20;;
75297;SDS011;63896;45.990;18.688;2023-08-08T10:27:40;2.60;;;0.82;;
75297;SDS011;63896;45.990;18.688;2023-08-08T10:30:47;3.60;;;1.23;;
75297;SDS011;63896;45.990;18.688;2023-08-08T10:34:00;1.52;;;1.42;;
75297;SDS011;63896;45.990;18.688;2023-08-08T10:37:17;3.57;;;1.57;;
75297;SDS011;63896;45.990;18.688;2023-08-08T10:40:20;2.88;;;1.23;;
75297;SDS011;63896;45.990;18.688;2023-08-08T10:43:27;2.95;;;1.00;;
75297;SDS011;63896;45.990;18.688;2023-08-08T10:46:31;1.65;;;1.13;;
75297;SDS011;63896;45.990;18.688;2023-08-08T10:49:36;2.28;;;1.40;;
75297;SDS011;63896;45.990;18.688;2023-08-08T10:56:01;1.45;;;1.02;;
75297;SDS011;63896;45.990;18.688;2023-08-08T10:59:15;1.55;;;1.10;;
75297;SDS011;63896;45.990;18.688;2023-08-08T11:02:24;1.40;;;1.30;;
75297;SDS011;63896;45.990;18.688;2023-08-08T11:05:28;2.10;;;0.90;;
75297;SDS011;63896;45.990;18.688;2023-08-08T11:08:33;1.40;;;1.30;;
75297;SDS011;63896;45.990;18.688;2023-08-08T11:11:39;0.75;;;0.75;;
75297;SDS011;63896;45.990;18.688;2023-08-08T11:14:42;0.65;;;0.60;;
75297;SDS011;63896;45.990;18.688;2023-08-08T11:17:46;1.15;;;0.55;;
75297;SDS011;63896;45.990;18.688;2023-08-08T11:20:49;1.02;;;0.50;;
75297;SDS011;63896;45.990;18.688;2023-08-08T11:23:54;2.20;;;1.27;;
75297;SDS011;63896;45.990;18.688;2023-08-08T11:27:01;4.15;;;0.98;;
75297;SDS011;63896;45.990;18.688;2023-08-08T11:30:04;3.50;;;1.20;;
75297;SDS011;63896;45.990;18.688;2023-08-08T11:33:12;1.77;;;1.40;;
75297;SDS011;63896;45.990;18.688;2023-08-08T11:36:17;2.05;;;0.60;;
75297;SDS011;63896;45.990;18.688;2023-08-08T11:39:21;2.23;;;0.60;;
75297;SDS011;63896;45.990;18.688;2023-08-08T11:42:24;1.73;;;0.50;;
75297;SDS011;63896;45.990;18.688;2023-08-08T11:45:27;1.05;;;0.50;;
75297;SDS011;63896;45.990;18.688;2023-08-08T11:48:32;1.65;;;0.63;;
75297;SDS011;63896;45.990;18.688;2023-08-08T11:51:35;1.38;;;1.27;;
75297;SDS011;63896;45.990;18.688;2023-08-08T11:54:38;1.03;;;1.03;;
75297;SDS011;63896;45.990;18.688;2023-08-08T11:57:42;2.03;;;1.00;;
75297;SDS011;63896;45.990;18.688;2023-08-08T12:00:44;1.15;;;1.02;;
75297;SDS011;63896;45.990;18.688;2023-08-08T12:03:48;1.50;;;1.08;;
75297;SDS011;63896;45.990;18.688;2023-08-08T12:06:57;2.50;;;1.60;;
75297;SDS011;63896;45.990;18.688;2023-08-08T12:10:13;1.60;;;1.10;;
75297;SDS011;63896;45.990;18.688;2023-08-08T12:13:22;4.40;;;1.70;;
75297;SDS011;63896;45.990;18.688;2023-08-08T12:16:29;4.70;;;1.00;;
75297;SDS011;63896;45.990;18.688;2023-08-08T12:19:35;1.55;;;1.00;;
75297;SDS011;63896;45.990;18.688;2023-08-08T12:22:38;1.38;;;0.90;;
75297;SDS011;63896;45.990;18.688;2023-08-08T12:25:42;4.30;;;0.90;;
75297;SDS011;63896;45.990;18.688;2023-08-08T12:28:45;1.13;;;0.52;;
75297;SDS011;63896;45.990;18.688;2023-08-08T12:31:48;1.20;;;0.60;;
75297;SDS011;63896;45.990;18.688;2023-08-08T12:34:51;2.55;;;0.25;;
75297;SDS011;63896;45.990;18.688;2023-08-08T12:37:53;2.08;;;0.80;;
75297;SDS011;63896;45.990;18.688;2023-08-08T12:40:56;0.70;;;0.40;;
75297;SDS011;63896;45.990;18.688;2023-08-08T12:44:00;2.35;;;0.80;;
75297;SDS011;63896;45.990;18.688;2023-08-08T12:47:02;1.08;;;0.20;;
75297;SDS011;63896;45.990;18.688;2023-08-08T12:50:06;0.60;;;0.25;;
75297;SDS011;63896;45.990;18.688;2023-08-08T12:53:10;2.22;;;0.40;;
75297;SDS011;63896;45.990;18.688;2023-08-08T12:56:18;2.63;;;0.50;;
75297;SDS011;63896;45.990;18.688;2023-08-08T12:59:24;1.17;;;0.90;;
75297;SDS011;63896;45.990;18.688;2023-08-08T13:02:27;2.15;;;1.00;;
75297;SDS011;63896;45.990;18.688;2023-08-08T13:05:30;1.40;;;0.88;;
75297;SDS011;63896;45.990;18.688;2023-08-08T13:08:33;2.20;;;0.60;;
75297;SDS011;63896;45.990;18.688;2023-08-08T13:11:36;1.60;;;0.50;;
75297;SDS011;63896;45.990;18.688;2023-08-08T13:14:39;0.80;;;0.30;;
75297;SDS011;63896;45.990;18.688;2023-08-08T13:17:41;1.35;;;0.45;;
75297;SDS011;63896;45.990;18.688;2023-08-08T13:20:44;1.55;;;0.30;;
75297;SDS011;63896;45.990;18.688;2023-08-08T13:23:47;1.85;;;0.52;;
75297;SDS011;63896;45.990;18.688;2023-08-08T13:26:50;1.00;;;0.53;;
75297;SDS011;63896;45.990;18.688;2023-08-08T13:29:53;2.47;;;0.70;;
75297;SDS011;63896;45.990;18.688;2023-08-08T13:32:55;2.65;;;0.40;;
75297;SDS011;63896;45.990;18.688;2023-08-08T13:36:00;3.35;;;0.38;;
75297;SDS011;63896;45.990;18.688;2023-08-08T13:39:03;4.80;;;0.70;;
75297;SDS011;63896;45.990;18.688;2023-08-08T13:42:07;0.40;;;0.23;;
75297;SDS011;63896;45.990;18.688;2023-08-08T13:45:11;1.25;;;0.38;;
75297;SDS011;63896;45.990;18.688;2023-08-08T13:48:14;0.77;;;0.25;;
75297;SDS011;63896;45.990;18.688;2023-08-08T13:51:17;0.50;;;0.20;;
75297;SDS011;63896;45.990;18.688;2023-08-08T13:54:20;0.68;;;0.40;;
75297;SDS011;63896;45.990;18.688;2023-08-08T13:57:24;1.30;;;0.40;;
75297;SDS011;63896;45.990;18.688;2023-08-08T14:00:27;1.08;;;0.45;;
75297;SDS011;63896;45.990;18.688;2023-08-08T14:03:30;1.05;;;0.30;;
75297;SDS011;63896;45.990;18.688;2023-08-08T14:06:33;1.10;;;0.30;;
75297;SDS011;63896;45.990;18.688;2023-08-08T14:09:37;0.55;;;0.30;;
75297;SDS011;63896;45.990;18.688;2023-08-08T14:12:40;0.93;;;0.40;;
75297;SDS011;63896;45.990;18.688;2023-08-08T14:15:43;1.70;;;0.20;;
75297;SDS011;63896;45.990;18.688;2023-08-08T14:18:46;2.17;;;0.38;;
75297;SDS011;63896;45.990;18.688;2023-08-08T14:21:50;1.08;;;0.60;;
75297;SDS011;63896;45.990;18.688;2023-08-08T14:24:52;0.85;;;0.20;;
75297;SDS011;63896;45.990;18.688;2023-08-08T14:27:55;1.07;;;0.10;;
75297;SDS011;63896;45.990;18.688;2023-08-08T14:31:02;3.35;;;0.25;;
75297;SDS011;63896;45.990;18.688;2023-08-08T14:34:08;2.58;;;0.32;;
75297;SDS011;63896;45.990;18.688;2023-08-08T14:37:11;5.28;;;0.60;;
75297;SDS011;63896;45.990;18.688;2023-08-08T14:40:14;0.45;;;0.17;;
75297;SDS011;63896;45.990;18.688;2023-08-08T14:43:17;1.47;;;0.20;;
75297;SDS011;63896;45.990;18.688;2023-08-08T14:46:20;2.42;;;0.20;;
75297;SDS011;63896;45.990;18.688;2023-08-08T14:49:23;1.42;;;0.25;;
75297;SDS011;63896;45.990;18.688;2023-08-08T14:52:28;0.30;;;0.10;;
75297;SDS011;63896;45.990;18.688;2023-08-08T14:55:31;0.85;;;0.10;;
75297;SDS011;63896;45.990;18.688;2023-08-08T14:58:34;0.67;;;0.20;;
75297;SDS011;63896;45.990;18.688;2023-08-08T15:01:37;1.02;;;0.20;;
75297;SDS011;63896;45.990;18.688;2023-08-08T15:04:40;0.60;;;0.15;;
75297;SDS011;63896;45.990;18.688;2023-08-08T15:07:43;0.22;;;0.20;;
75297;SDS011;63896;45.990;18.688;2023-08-08T15:10:46;0.45;;;0.28;;
75297;SDS011;63896;45.990;18.688;2023-08-08T15:13:49;0.53;;;0.10;;
75297;SDS011;63896;45.990;18.688;2023-08-08T15:16:52;0.63;;;0.35;;
75297;SDS011;63896;45.990;18.688;2023-08-08T15:20:00;0.40;;;0.17;;
75297;SDS011;63896;45.990;18.688;2023-08-08T15:23:03;0.60;;;0.20;;
75297;SDS011;63896;45.990;18.688;2023-08-08T15:26:06;1.85;;;0.25;;
75297;SDS011;63896;45.990;18.688;2023-08-08T15:29:08;1.47;;;0.20;;
75297;SDS011;63896;45.990;18.688;2023-08-08T15:32:11;1.85;;;0.20;;
75297;SDS011;63896;45.990;18.688;2023-08-08T15:35:14;0.85;;;0.15;;
75297;SDS011;63896;45.990;18.688;2023-08-08T15:38:17;0.38;;;0.00;;
75297;SDS011;63896;45.990;18.688;2023-08-08T15:41:20;1.98;;;0.13;;
75297;SDS011;63896;45.990;18.688;2023-08-08T15:44:23;3.10;;;0.20;;
75297;SDS011;63896;45.990;18.688;2023-08-08T15:47:26;0.40;;;0.13;;
75297;SDS011;63896;45.990;18.688;2023-08-08T15:50:28;1.45;;;0.20;;
75297;SDS011;63896;45.990;18.688;2023-08-08T15:53:31;0.70;;;0.30;;
75297;SDS011;63896;45.990;18.688;2023-08-08T15:56:36;1.42;;;0.13;;
75297;SDS011;63896;45.990;18.688;2023-08-08T15:59:40;0.83;;;0.10;;
75297;SDS011;63896;45.990;18.688;2023-08-08T16:02:44;4.00;;;0.32;;
75297;SDS011;63896;45.990;18.688;2023-08-08T16:05:47;1.77;;;0.20;;
75297;SDS011;63896;45.990;18.688;2023-08-08T16:08:51;0.20;;;0.08;;
75297;SDS011;63896;45.990;18.688;2023-08-08T16:11:55;0.40;;;0.17;;
75297;SDS011;63896;45.990;18.688;2023-08-08T16:14:58;0.70;;;0.20;;
75297;SDS011;63896;45.990;18.688;2023-08-08T16:18:01;0.40;;;0.40;;
75297;SDS011;63896;45.990;18.688;2023-08-08T16:21:04;0.50;;;0.20;;
75297;SDS011;63896;45.990;18.688;2023-08-08T16:24:07;0.50;;;0.20;;
75297;SDS011;63896;45.990;18.688;2023-08-08T16:27:11;0.35;;;0.30;;
75297;SDS011;63896;45.990;18.688;2023-08-08T16:30:14;0.27;;;0.07;;
75297;SDS011;63896;45.990;18.688;2023-08-08T16:33:16;1.40;;;0.20;;
75297;SDS011;63896;45.990;18.688;2023-08-08T16:36:20;1.08;;;0.22;;
75297;SDS011;63896;45.990;18.688;2023-08-08T16:39:23;0.90;;;0.25;;
75297;SDS011;63896;45.990;18.688;2023-08-08T16:42:26;2.08;;;0.20;;
75297;SDS011;63896;45.990;18.688;2023-08-08T16:45:28;0.60;;;0.10;;
75297;SDS011;63896;45.990;18.688;2023-08-08T16:48:31;2.45;;;0.20;;
75297;SDS011;63896;45.990;18.688;2023-08-08T16:51:34;0.70;;;0.30;;
75297;SDS011;63896;45.990;18.688;2023-08-08T16:54:37;1.85;;;0.20;;
75297;SDS011;63896;45.990;18.688;2023-08-08T16:57:40;2.65;;;0.30;;
75297;SDS011;63896;45.990;18.688;2023-08-08T17:00:43;1.77;;;0.30;;
75297;SDS011;63896;45.990;18.688;2023-08-08T17:03:46;0.63;;;0.20;;
75297;SDS011;63896;45.990;18.688;2023-08-08T17:06:49;3.17;;;0.10;;
75297;SDS011;63896;45.990;18.688;2023-08-08T17:09:52;3.90;;;0.10;;
75297;SDS011;63896;45.990;18.688;2023-08-08T17:12:55;0.95;;;0.20;;
75297;SDS011;63896;45.990;18.688;2023-08-08T17:15:58;0.53;;;0.10;;
75297;SDS011;63896;45.990;18.688;2023-08-08T17:19:01;0.35;;;0.28;;
75297;SDS011;63896;45.990;18.688;2023-08-08T17:22:03;0.32;;;0.20;;
75297;SDS011;63896;45.990;18.688;2023-08-08T17:25:06;2.60;;;0.22;;
75297;SDS011;63896;45.990;18.688;2023-08-08T17:28:09;3.75;;;0.22;;
75297;SDS011;63896;45.990;18.688;2023-08-08T17:31:12;1.50;;;0.20;;
75297;SDS011;63896;45.990;18.688;2023-08-08T17:34:15;1.67;;;0.30;;
75297;SDS011;63896;45.990;18.688;2023-08-08T17:37:18;0.47;;;0.10;;
75297;SDS011;63896;45.990;18.688;2023-08-08T17:40:21;1.63;;;0.30;;
75297;SDS011;63896;45.990;18.688;2023-08-08T17:43:24;1.38;;;0.22;;
75297;SDS011;63896;45.990;18.688;2023-08-08T17:46:27;2.80;;;0.40;;
75297;SDS011;63896;45.990;18.688;2023-08-08T17:49:30;0.50;;;0.30;;
75297;SDS011;63896;45.990;18.688;2023-08-08T17:52:33;0.63;;;0.30;;
75297;SDS011;63896;45.990;18.688;2023-08-08T17:55:56;0.68;;;0.20;;
75297;SDS011;63896;45.990;18.688;2023-08-08T17:58:58;2.03;;;0.50;;
75297;SDS011;63896;45.990;18.688;2023-08-08T18:02:01;2.67;;;0.23;;
75297;SDS011;63896;45.990;18.688;2023-08-08T18:05:05;0.90;;;0.45;;
75297;SDS011;63896;45.990;18.688;2023-08-08T18:08:08;1.20;;;0.50;;
75297;SDS011;63896;45.990;18.688;2023-08-08T18:11:15;1.30;;;0.60;;
75297;SDS011;63896;45.990;18.688;2023-08-08T18:14:19;1.98;;;0.90;;
75297;SDS011;63896;45.990;18.688;2023-08-08T18:17:21;2.07;;;0.93;;